createdAt,value
2023-08-12T00:01:26.316Z,29.00
2023-08-12T00:03:53.353Z,29.00
2023-08-12T00:06:21.702Z,29.00
2023-08-12T00:08:48.670Z,28.90
2023-08-12T00:11:15.727Z,28.90
2023-08-12T00:13:42.678Z,28.90
2023-08-12T00:16:09.668Z,28.90
2023-08-12T00:18:38.071Z,28.90
2023-08-12T00:21:09.479Z,28.90
2023-08-12T00:23:45.283Z,28.90
2023-08-12T00:26:12.519Z,28.90
2023-08-12T00:28:39.457Z,28.90
2023-08-12T00:31:06.590Z,28.90
2023-08-12T00:33:34.758Z,28.90
2023-08-12T00:36:02.325Z,28.90
2023-08-12T00:38:30.059Z,28.90
2023-08-12T00:40:57.052Z,28.90
2023-08-12T00:43:24.013Z,28.90
2023-08-12T00:45:51.566Z,28.90
2023-08-12T00:48:19.542Z,28.90
2023-08-12T00:50:47.377Z,28.90
2023-08-12T00:53:17.120Z,28.90
2023-08-12T00:55:44.292Z,28.90
2023-08-12T00:58:12.080Z,28.90
2023-08-12T01:00:39.297Z,28.80
2023-08-12T01:03:08.085Z,28.80
2023-08-12T01:05:37.900Z,28.80
2023-08-12T01:08:06.538Z,28.80
2023-08-12T01:10:39.163Z,28.80
2023-08-12T01:13:36.254Z,28.80
2023-08-12T01:16:09.996Z,28.80
2023-08-12T01:18:39.508Z,28.80
2023-08-12T01:21:10.888Z,28.80
2023-08-12T01:23:37.876Z,28.80
2023-08-12T01:26:05.348Z,28.80
2023-08-12T01:28:32.315Z,28.80
2023-08-12T01:31:13.294Z,28.80
2023-08-12T01:34:08.039Z,28.80
2023-08-12T01:37:01.369Z,28.80
2023-08-12T01:39:31.937Z,28.80
2023-08-12T01:42:00.284Z,28.80
2023-08-12T01:44:27.549Z,28.80
2023-08-12T01:46:55.992Z,28.80
2023-08-12T01:50:09.489Z,28.80
2023-08-12T01:52:36.647Z,28.80
2023-08-12T01:55:05.414Z,28.80
2023-08-12T01:57:32.401Z,28.80
2023-08-12T01:59:59.428Z,28.80
2023-08-12T02:02:26.496Z,28.80
2023-08-12T02:04:53.525Z,28.80
2023-08-12T02:07:20.476Z,28.80
2023-08-12T02:09:47.534Z,28.80
2023-08-12T02:12:17.529Z,28.80
2023-08-12T02:14:44.635Z,28.80
2023-08-12T02:17:12.920Z,28.80
2023-08-12T02:19:40.137Z,28.80
2023-08-12T02:22:07.145Z,28.70
2023-08-12T02:24:34.031Z,28.70
2023-08-12T02:27:01.026Z,28.80
2023-08-12T02:29:27.970Z,28.70
2023-08-12T02:31:54.990Z,28.70
2023-08-12T02:34:24.520Z,28.80
2023-08-12T02:36:51.522Z,28.70
2023-08-12T02:39:18.482Z,28.70
2023-08-12T02:41:45.413Z,28.30
2023-08-12T02:44:15.489Z,28.70
2023-08-12T02:46:42.408Z,28.70
2023-08-12T02:49:09.325Z,28.70
2023-08-12T02:51:39.166Z,28.70
2023-08-12T02:54:06.359Z,28.70
2023-08-12T02:56:33.470Z,28.70
2023-08-12T02:59:00.678Z,28.70
2023-08-12T03:01:28.787Z,28.70
2023-08-12T03:03:55.790Z,28.70
2023-08-12T03:06:22.808Z,28.70
2023-08-12T03:08:49.791Z,28.70
2023-08-12T03:11:17.840Z,28.70
2023-08-12T03:13:44.876Z,28.70
2023-08-12T03:16:15.636Z,28.70
2023-08-12T03:18:42.940Z,28.70
2023-08-12T03:21:10.607Z,28.70
2023-08-12T03:23:39.300Z,28.70
2023-08-12T03:26:06.306Z,28.70
2023-08-12T03:28:33.303Z,28.70
2023-08-12T03:31:00.292Z,28.70
2023-08-12T03:33:28.028Z,28.70
2023-08-12T03:35:56.419Z,28.70
2023-08-12T03:38:23.405Z,28.70
2023-08-12T03:40:51.678Z,28.70
2023-08-12T03:43:18.637Z,28.70
2023-08-12T03:45:46.642Z,28.70
2023-08-12T03:48:13.781Z,28.70
2023-08-12T03:50:43.523Z,28.70
2023-08-12T03:53:10.639Z,28.70
2023-08-12T03:55:37.832Z,28.70
2023-08-12T03:58:05.280Z,28.70
2023-08-12T04:00:32.421Z,28.70
2023-08-12T04:02:59.466Z,28.70
2023-08-12T04:05:27.287Z,28.70
2023-08-12T04:07:54.415Z,28.70
2023-08-12T04:10:21.364Z,28.70
2023-08-12T04:12:48.404Z,28.70
2023-08-12T04:15:15.434Z,28.60
2023-08-12T04:17:42.596Z,28.70
2023-08-12T04:20:10.351Z,28.60
2023-08-12T04:22:37.488Z,28.70
2023-08-12T04:25:05.269Z,28.60
2023-08-12T04:27:32.233Z,28.60
2023-08-12T04:30:02.290Z,28.60
2023-08-12T04:32:29.374Z,28.60
2023-08-12T04:34:59.495Z,28.70
2023-08-12T04:37:27.212Z,28.60
2023-08-12T04:39:54.234Z,28.70
2023-08-12T04:42:21.141Z,28.60
2023-08-12T04:44:48.616Z,28.60
2023-08-12T04:47:16.409Z,28.60
2023-08-12T04:49:44.955Z,28.60
2023-08-12T04:52:11.938Z,28.60
2023-08-12T04:54:38.914Z,28.60
2023-08-12T04:57:11.363Z,28.60
2023-08-12T04:59:38.737Z,28.60
2023-08-12T05:02:05.822Z,28.60
2023-08-12T05:04:32.834Z,28.60
2023-08-12T05:07:02.673Z,28.60
2023-08-12T05:09:29.638Z,28.60
2023-08-12T05:11:56.583Z,28.70
2023-08-12T05:14:23.586Z,28.60
2023-08-12T05:16:50.485Z,28.60
2023-08-12T05:19:17.426Z,28.70
2023-08-12T05:21:44.386Z,28.60
2023-08-12T05:24:12.580Z,28.70
2023-08-12T05:26:39.591Z,28.70
2023-08-12T05:29:06.503Z,28.70
2023-08-12T05:31:33.571Z,28.70
2023-08-12T05:34:00.598Z,28.70
2023-08-12T05:36:27.744Z,28.70
2023-08-12T05:38:54.648Z,28.70
2023-08-12T05:41:21.764Z,28.70
2023-08-12T05:43:50.319Z,28.70
2023-08-12T05:46:17.469Z,28.70
2023-08-12T05:48:46.641Z,28.70
2023-08-12T05:51:13.624Z,28.60
2023-08-12T05:53:40.842Z,28.70
2023-08-12T05:56:07.899Z,28.70
2023-08-12T05:58:34.924Z,28.70
2023-08-12T06:01:02.011Z,28.70
2023-08-12T06:03:28.979Z,28.70
2023-08-12T06:05:56.025Z,28.70
2023-08-12T06:08:23.144Z,28.70
2023-08-12T06:10:50.032Z,28.70
2023-08-12T06:13:17.020Z,28.60
2023-08-12T06:15:43.980Z,28.70
2023-08-12T06:18:11.270Z,28.70
2023-08-12T06:20:38.363Z,28.60
2023-08-12T06:23:05.414Z,28.70
2023-08-12T06:25:33.552Z,28.70
2023-08-12T06:28:02.592Z,28.70
2023-08-12T06:30:29.513Z,28.70
2023-08-12T06:32:56.856Z,28.70
2023-08-12T06:35:23.878Z,28.70
2023-08-12T06:37:50.785Z,28.70
2023-08-12T06:40:18.295Z,28.70
2023-08-12T06:42:45.280Z,28.70
2023-08-12T06:45:12.788Z,28.70
2023-08-12T06:47:39.749Z,28.70
2023-08-12T06:50:07.032Z,28.70
2023-08-12T06:52:34.004Z,28.70
2023-08-12T06:55:00.905Z,28.70
2023-08-12T06:57:27.905Z,28.70
2023-08-12T06:59:54.900Z,28.70
2023-08-12T07:02:21.960Z,28.70
2023-08-12T07:04:48.918Z,28.60
2023-08-12T07:07:17.212Z,28.60
2023-08-12T07:09:44.489Z,28.60
2023-08-12T07:12:11.926Z,28.70
2023-08-12T07:14:39.039Z,28.70
2023-08-12T07:17:06.113Z,28.60
2023-08-12T07:19:33.073Z,28.60
2023-08-12T07:22:00.067Z,28.60
2023-08-12T07:24:27.072Z,28.70
2023-08-12T07:26:54.046Z,28.70
2023-08-12T07:29:22.244Z,28.70
2023-08-12T07:31:49.420Z,28.70
2023-08-12T07:34:16.379Z,28.70
2023-08-12T07:36:44.775Z,28.70
2023-08-12T07:39:11.824Z,28.70
2023-08-12T07:41:38.831Z,28.70
2023-08-12T07:44:09.217Z,28.70
2023-08-12T07:46:36.207Z,28.80
2023-08-12T07:49:03.333Z,28.80
2023-08-12T07:51:30.321Z,28.80
2023-08-12T07:53:57.289Z,28.80
2023-08-12T07:56:24.354Z,28.80
2023-08-12T07:58:51.394Z,28.80
2023-08-12T08:01:18.343Z,28.80
2023-08-12T08:03:45.464Z,28.90
2023-08-12T08:06:12.464Z,28.90
2023-08-12T08:08:39.480Z,28.90
2023-08-12T08:11:07.673Z,28.90
2023-08-12T08:13:34.716Z,28.90
2023-08-12T08:16:03.294Z,28.90
2023-08-12T08:18:30.399Z,28.90
2023-08-12T08:20:57.421Z,29.00
2023-08-12T08:23:24.529Z,28.90
2023-08-12T08:25:51.656Z,29.00
2023-08-12T08:28:18.924Z,29.00
2023-08-12T08:30:45.997Z,29.00
2023-08-12T08:33:13.118Z,29.00
2023-08-12T08:35:40.178Z,29.00
2023-08-12T08:38:07.441Z,29.00
2023-08-12T08:40:34.419Z,29.00
2023-08-12T08:43:05.194Z,29.00
2023-08-12T08:45:34.905Z,29.00
2023-08-12T08:48:03.910Z,29.00
2023-08-12T08:50:34.896Z,29.00
2023-08-12T08:53:06.829Z,29.10
2023-08-12T08:55:34.945Z,29.10
2023-08-12T08:58:03.229Z,29.10
2023-08-12T09:00:34.214Z,29.10
2023-08-12T09:03:02.525Z,29.10
2023-08-12T09:05:32.669Z,29.10
2023-08-12T09:08:02.272Z,29.10
2023-08-12T09:10:31.362Z,29.10
2023-08-12T09:12:58.500Z,29.10
2023-08-12T09:15:25.807Z,29.10
2023-08-12T09:17:52.980Z,29.10
2023-08-12T09:20:20.719Z,29.20
2023-08-12T09:22:58.960Z,29.20
2023-08-12T09:25:28.899Z,29.20
2023-08-12T09:28:01.059Z,29.20
2023-08-12T09:30:32.629Z,29.20
2023-08-12T09:33:04.356Z,29.20
2023-08-12T09:35:44.786Z,29.20
2023-08-12T09:38:16.499Z,29.20
2023-08-12T09:40:45.510Z,29.20
2023-08-12T09:43:14.065Z,29.20
2023-08-12T09:45:41.618Z,29.20
2023-08-12T09:48:10.563Z,29.20
2023-08-12T09:50:38.785Z,29.20
2023-08-12T09:53:05.856Z,29.20
2023-08-12T09:55:56.124Z,29.20
2023-08-12T10:02:54.739Z,29.30
2023-08-12T10:05:29.363Z,29.20
2023-08-12T10:07:56.715Z,29.20
2023-08-12T10:10:24.267Z,29.20
2023-08-12T10:12:52.231Z,29.10
2023-08-12T10:15:22.127Z,29.10
2023-08-12T10:17:52.958Z,29.10
2023-08-12T10:20:26.000Z,29.10
2023-08-12T10:22:54.892Z,29.10
2023-08-12T10:25:25.343Z,29.10
2023-08-12T10:27:52.437Z,29.10
2023-08-12T10:30:21.985Z,29.10
2023-08-12T10:32:49.569Z,29.10
2023-08-12T10:35:16.739Z,29.10
2023-08-12T10:37:50.522Z,29.10
2023-08-12T10:40:24.638Z,29.10
2023-08-12T10:42:52.007Z,29.10
2023-08-12T10:45:20.365Z,29.10
2023-08-12T10:48:19.147Z,29.10
2023-08-12T10:50:50.646Z,29.20
2023-08-12T10:53:32.915Z,29.20
2023-08-12T10:56:05.498Z,29.20
2023-08-12T10:58:44.974Z,29.20
2023-08-12T11:01:19.437Z,29.20
2023-08-12T11:03:49.192Z,29.20
2023-08-12T11:06:16.326Z,29.20
2023-08-12T11:08:54.063Z,29.20
2023-08-12T11:11:24.697Z,29.20
2023-08-12T11:13:57.716Z,29.20
2023-08-12T11:16:38.736Z,29.20
2023-08-12T11:19:06.108Z,29.20
2023-08-12T11:21:35.416Z,29.20
2023-08-12T11:24:03.926Z,29.20
2023-08-12T11:26:32.022Z,29.20
2023-08-12T11:28:59.159Z,29.20
2023-08-12T11:31:28.569Z,29.20
2023-08-12T11:33:55.936Z,29.20
2023-08-12T11:36:23.079Z,29.20
2023-08-12T11:38:50.341Z,29.30
2023-08-12T11:41:19.741Z,29.30
2023-08-12T11:43:46.846Z,29.30
2023-08-12T11:46:17.378Z,29.30
2023-08-12T11:48:45.391Z,29.30
2023-08-12T11:51:12.913Z,29.40
2023-08-12T11:53:40.327Z,29.40
2023-08-12T11:56:07.663Z,29.40
2023-08-12T11:58:51.761Z,29.40
2023-08-12T12:01:20.008Z,29.40
2023-08-12T12:03:52.523Z,29.40
2023-08-12T12:06:36.822Z,29.40
2023-08-12T12:09:13.976Z,29.30
2023-08-12T12:11:42.890Z,29.30
2023-08-12T12:14:12.053Z,29.30
2023-08-12T12:16:50.192Z,29.20
2023-08-12T12:19:25.137Z,29.20
2023-08-12T12:21:54.452Z,29.10
2023-08-12T12:24:22.317Z,29.10
2023-08-12T12:26:51.880Z,29.00
2023-08-12T12:29:19.148Z,30.90
2023-08-12T12:31:46.458Z,29.00
2023-08-12T12:34:15.757Z,28.90
2023-08-12T12:36:43.383Z,28.90
2023-08-12T12:39:10.682Z,28.80
2023-08-12T12:41:37.993Z,28.80
2023-08-12T12:44:05.671Z,28.80
2023-08-12T12:46:32.978Z,28.80
2023-08-12T12:49:00.117Z,28.80
2023-08-12T12:51:27.330Z,28.70
2023-08-12T12:53:54.752Z,28.70
2023-08-12T12:56:21.890Z,28.70
2023-08-12T12:58:49.040Z,28.70
2023-08-12T13:01:16.358Z,28.70
2023-08-12T13:03:43.622Z,28.70
2023-08-12T13:06:10.807Z,28.70
2023-08-12T13:08:38.094Z,28.70
2023-08-12T13:11:07.540Z,28.70
2023-08-12T13:13:34.855Z,28.70
2023-08-12T13:16:02.115Z,28.70
2023-08-12T13:18:29.305Z,28.80
2023-08-12T13:20:56.742Z,28.80
2023-08-12T13:23:26.158Z,28.80
2023-08-12T13:25:53.270Z,28.80
2023-08-12T13:28:20.590Z,28.80
2023-08-12T13:30:47.732Z,28.90
2023-08-12T13:33:15.045Z,28.90
2023-08-12T13:35:42.132Z,28.90
2023-08-12T13:38:09.166Z,28.90
2023-08-12T13:40:36.259Z,28.90
2023-08-12T13:43:03.694Z,28.90
2023-08-12T13:45:30.761Z,28.80
2023-08-12T13:47:57.788Z,28.80
2023-08-12T13:50:24.975Z,28.80
2023-08-12T13:52:52.551Z,28.80
2023-08-12T13:55:19.613Z,28.90
2023-08-12T13:57:49.009Z,29.00
2023-08-12T14:00:16.843Z,28.90
2023-08-12T14:02:44.660Z,29.00
2023-08-12T14:05:12.818Z,29.00
2023-08-12T14:07:39.875Z,29.00
2023-08-12T14:10:07.722Z,29.10
2023-08-12T14:12:35.297Z,29.10
2023-08-12T14:15:03.291Z,29.20
2023-08-12T14:17:30.390Z,29.20
2023-08-12T14:20:01.755Z,29.20
2023-08-12T14:22:28.983Z,29.30
2023-08-12T14:27:23.885Z,29.30
2023-08-12T14:29:50.840Z,29.40
2023-08-12T14:32:21.454Z,29.40
2023-08-12T14:34:48.757Z,29.40
2023-08-12T14:37:16.251Z,29.40
2023-08-12T14:39:43.486Z,29.40
2023-08-12T14:42:11.543Z,29.50
2023-08-12T14:44:38.590Z,29.50
2023-08-12T14:47:06.334Z,29.50
2023-08-12T14:49:33.300Z,29.40
2023-08-12T14:52:00.369Z,29.40
2023-08-12T14:54:27.462Z,29.40
2023-08-12T14:56:54.405Z,29.50
2023-08-12T14:59:21.337Z,29.40
2023-08-12T15:01:48.299Z,29.40
2023-08-12T15:04:15.317Z,29.40
2023-08-12T15:06:42.389Z,29.50
2023-08-12T15:09:10.634Z,29.50
2023-08-12T15:11:37.659Z,29.50
2023-08-12T15:14:04.933Z,29.50
2023-08-12T15:16:33.052Z,29.50
2023-08-12T15:19:00.255Z,29.50
2023-08-12T15:21:27.197Z,29.50
2023-08-12T15:23:54.155Z,29.50
2023-08-12T15:26:23.533Z,29.50
2023-08-12T15:28:51.025Z,29.50
2023-08-12T15:31:17.930Z,29.50
2023-08-12T15:33:44.907Z,29.50
2023-08-12T15:36:11.936Z,29.50
2023-08-12T15:38:40.983Z,29.50
2023-08-12T15:41:17.556Z,29.50
2023-08-12T15:43:45.038Z,29.60
2023-08-12T15:46:13.247Z,29.50
2023-08-12T15:48:40.507Z,29.60
2023-08-12T15:51:07.664Z,29.60
2023-08-12T15:53:34.634Z,29.50
2023-08-12T15:56:01.700Z,29.60
2023-08-12T15:58:28.743Z,29.60
2023-08-12T16:00:56.178Z,29.60
2023-08-12T16:03:23.268Z,29.70
2023-08-12T16:05:50.451Z,29.70
2023-08-12T16:08:21.055Z,29.70
2023-08-12T16:10:51.091Z,29.80
2023-08-12T16:13:19.570Z,29.80
2023-08-12T16:15:47.236Z,29.80
2023-08-12T16:18:14.282Z,29.80
2023-08-12T16:20:41.476Z,29.80
2023-08-12T16:23:08.592Z,29.80
2023-08-12T16:25:35.605Z,29.80
2023-08-12T16:28:03.069Z,29.80
2023-08-12T16:30:30.196Z,29.90
2023-08-12T16:32:57.215Z,29.90
2023-08-12T16:35:48.229Z,29.90
2023-08-12T16:38:15.581Z,29.90
2023-08-12T16:40:42.625Z,29.90
2023-08-12T16:43:12.347Z,30.00
2023-08-12T16:45:39.330Z,29.90
2023-08-12T16:48:06.887Z,29.90
2023-08-12T16:50:33.842Z,29.90
2023-08-12T16:53:01.410Z,29.90
2023-08-12T16:55:28.362Z,29.90
2023-08-12T16:57:55.433Z,29.90
2023-08-12T17:00:22.388Z,29.90
2023-08-12T17:02:49.383Z,29.90
2023-08-12T17:05:19.537Z,29.90
2023-08-12T17:07:49.919Z,29.90
2023-08-12T17:10:16.938Z,29.80
2023-08-12T17:12:44.035Z,29.80
2023-08-12T17:15:14.494Z,29.80
2023-08-12T17:17:42.111Z,29.80
2023-08-12T17:20:09.587Z,29.70
2023-08-12T17:22:37.217Z,29.80
2023-08-12T17:25:07.955Z,29.70
2023-08-12T17:27:34.953Z,29.70
2023-08-12T17:30:02.057Z,29.70
2023-08-12T17:32:28.990Z,29.70
2023-08-12T17:34:55.949Z,29.70
2023-08-12T17:37:25.998Z,29.70
2023-08-12T17:39:53.042Z,29.70
2023-08-12T17:42:20.652Z,29.60
2023-08-12T17:44:47.705Z,29.60
2023-08-12T17:47:14.930Z,29.60
2023-08-12T17:49:41.938Z,29.60
2023-08-12T17:52:09.035Z,29.60
2023-08-12T17:54:36.048Z,29.50
2023-08-12T17:57:03.086Z,29.50
2023-08-12T17:59:30.133Z,29.50
2023-08-12T18:01:57.115Z,29.50
2023-08-12T18:04:24.407Z,29.50
2023-08-12T18:06:51.732Z,29.40
2023-08-12T18:09:19.896Z,29.40
2023-08-12T18:11:47.336Z,29.40
2023-08-12T18:14:15.521Z,29.40
2023-08-12T18:16:42.670Z,29.40
2023-08-12T18:19:09.787Z,29.30
2023-08-12T18:21:36.788Z,29.30
2023-08-12T18:24:03.976Z,29.30
2023-08-12T18:26:31.124Z,29.30
2023-08-12T18:28:58.382Z,29.30
2023-08-12T18:31:25.450Z,29.20
2023-08-12T18:33:55.371Z,29.20
2023-08-12T18:36:22.360Z,29.20
2023-08-12T18:38:49.341Z,29.20
2023-08-12T18:41:16.268Z,29.10
2023-08-12T18:43:43.381Z,29.10
2023-08-12T18:46:10.661Z,29.10
2023-08-12T18:48:37.698Z,29.10
2023-08-12T18:51:04.685Z,29.10
2023-08-12T18:53:31.891Z,29.00
2023-08-12T18:55:58.931Z,29.00
2023-08-12T18:58:26.006Z,29.00
2023-08-12T19:00:53.071Z,29.00
2023-08-12T19:03:20.248Z,28.90
2023-08-12T19:05:49.333Z,28.90
2023-08-12T19:08:17.093Z,28.90
2023-08-12T19:10:45.213Z,28.90
2023-08-12T19:13:12.315Z,28.90
2023-08-12T19:15:39.597Z,28.90
2023-08-12T19:18:06.745Z,28.80
2023-08-12T19:20:33.828Z,28.80
2023-08-12T19:23:00.874Z,28.80
2023-08-12T19:25:27.939Z,28.80
2023-08-12T19:27:55.076Z,28.80
2023-08-12T19:30:22.330Z,28.80
2023-08-12T19:32:56.392Z,28.80
2023-08-12T19:35:23.697Z,28.80
2023-08-12T19:37:55.597Z,28.70
2023-08-12T19:40:22.684Z,28.70
2023-08-12T19:42:50.081Z,28.70
2023-08-12T19:45:17.826Z,28.70
2023-08-12T19:47:45.298Z,28.70
2023-08-12T19:50:14.124Z,28.70
2023-08-12T19:52:41.466Z,28.70
2023-08-12T19:55:09.243Z,28.70
2023-08-12T19:57:36.282Z,28.70
2023-08-12T20:00:12.411Z,28.70
2023-08-12T20:02:40.517Z,28.60
2023-08-12T20:05:21.677Z,28.70
2023-08-12T20:07:50.439Z,28.70
2023-08-12T20:10:20.906Z,28.60
2023-08-12T20:12:50.102Z,28.60
2023-08-12T20:15:18.116Z,28.60
2023-08-12T20:17:45.378Z,28.60
2023-08-12T20:20:18.085Z,28.60
2023-08-12T20:23:04.666Z,28.60
2023-08-12T20:25:36.952Z,28.60
2023-08-12T20:28:05.201Z,28.60
2023-08-12T20:30:35.243Z,28.60
2023-08-12T20:33:03.869Z,28.60
2023-08-12T20:35:31.306Z,28.60
2023-08-12T20:37:58.500Z,28.50
2023-08-12T20:40:25.594Z,28.50
2023-08-12T20:42:52.700Z,28.50
2023-08-12T20:45:19.803Z,28.50
2023-08-12T20:47:48.148Z,28.50
2023-08-12T20:50:17.687Z,28.50
2023-08-12T20:52:44.649Z,28.50
2023-08-12T20:55:11.691Z,28.50
2023-08-12T20:57:38.976Z,28.50
2023-08-12T21:00:07.000Z,28.50
2023-08-12T21:02:34.250Z,28.50
2023-08-12T21:05:01.241Z,28.50
2023-08-12T21:07:28.215Z,28.50
2023-08-12T21:09:57.674Z,28.50
2023-08-12T21:12:24.797Z,28.40
2023-08-12T21:14:51.798Z,28.40
2023-08-12T21:17:18.979Z,28.50
2023-08-12T21:19:46.263Z,28.40
2023-08-12T21:22:14.426Z,28.40
2023-08-12T21:24:41.670Z,28.40
2023-08-12T21:27:08.595Z,28.40
2023-08-12T21:29:35.622Z,28.40
2023-08-12T21:32:02.850Z,28.40
2023-08-12T21:34:30.035Z,28.40
2023-08-12T21:36:57.063Z,28.40
2023-08-12T21:39:24.165Z,28.40
2023-08-12T21:41:51.196Z,28.40
2023-08-12T21:44:19.872Z,28.40
2023-08-12T21:46:49.345Z,28.40
2023-08-12T21:49:16.374Z,28.40
2023-08-12T21:51:43.383Z,28.40
2023-08-12T21:54:10.552Z,28.40
2023-08-12T21:56:37.735Z,28.40
2023-08-12T21:59:04.737Z,28.30
2023-08-12T22:01:31.765Z,28.30
2023-08-12T22:03:58.836Z,28.30
2023-08-12T22:06:25.848Z,28.30
2023-08-12T22:08:52.872Z,28.30
2023-08-12T22:11:19.969Z,28.30
2023-08-12T22:13:47.323Z,28.30
2023-08-12T22:16:14.534Z,28.30
2023-08-12T22:18:42.900Z,28.30
2023-08-12T22:21:10.443Z,28.30
2023-08-12T22:23:38.126Z,28.30
2023-08-12T22:26:05.370Z,28.30
2023-08-12T22:28:32.923Z,28.20
2023-08-12T22:31:00.003Z,28.20
2023-08-12T22:33:27.107Z,28.20
2023-08-12T22:35:54.054Z,28.20
2023-08-12T22:38:21.022Z,28.20
2023-08-12T22:40:48.017Z,28.20
2023-08-12T22:43:15.501Z,28.20
2023-08-12T22:45:44.658Z,28.20
2023-08-12T22:48:11.653Z,28.20
2023-08-12T22:50:38.840Z,28.20
2023-08-12T22:53:06.006Z,28.20
2023-08-12T22:55:33.253Z,28.20
2023-08-12T22:58:03.427Z,28.20
2023-08-12T23:00:30.498Z,28.20
2023-08-12T23:02:57.568Z,28.20
2023-08-12T23:05:24.738Z,28.20
2023-08-12T23:07:51.705Z,28.10
2023-08-12T23:10:18.829Z,28.10
2023-08-12T23:12:46.005Z,28.10
2023-08-12T23:15:13.168Z,28.10
2023-08-12T23:17:40.184Z,28.10
2023-08-12T23:20:08.376Z,28.20
2023-08-12T23:22:35.458Z,28.10
2023-08-12T23:25:02.662Z,28.10
2023-08-12T23:27:29.593Z,28.10
2023-08-12T23:29:56.967Z,28.10
2023-08-12T23:32:23.957Z,28.10
2023-08-12T23:34:51.006Z,28.10
2023-08-12T23:37:18.061Z,28.10
2023-08-12T23:39:45.122Z,28.10
2023-08-12T23:42:13.879Z,28.10
2023-08-12T23:44:41.147Z,28.10
2023-08-12T23:47:09.116Z,28.10
2023-08-12T23:49:36.010Z,28.10
2023-08-12T23:52:03.103Z,28.10
2023-08-12T23:54:30.046Z,28.10
2023-08-12T23:56:58.276Z,28.10
2023-08-12T23:59:25.264Z,28.10
